Time;durP1;ratioP1;P1;durP2;ratioP2;P2;SDS_P1;SDS_P2;PMS_P1;PMS_P2;Temp;Humidity;BMP_temperature;BMP_pressure;BME280_temperature;BME280_humidity;BME280_pressure;Samples;Min_cycle;Max_cycle;Signal;HPM_P1;HPM_P2
2022/05/16 00:00:13;;;;;;;4.67;3.40;;;13.90;99.90;;;;;;4172489;28;20029;-65
2022/05/16 00:02:14;;;;;;;4.83;3.60;;;13.80;99.90;;;;;;4156810;28;20513;-65
2022/05/16 00:04:16;;;;;;;8.13;3.00;;;13.80;99.90;;;;;;4172498;28;20044;-65
2022/05/16 00:06:17;;;;;;;7.77;3.43;;;13.80;99.90;;;;;;4172418;28;20024;-65
2022/05/16 00:08:18;;;;;;;6.20;3.13;;;13.80;99.90;;;;;;4172266;28;20057;-68
2022/05/16 00:10:20;;;;;;;9.70;3.57;;;13.70;99.90;;;;;;4171655;28;20523;-66
2022/05/16 00:12:21;;;;;;;5.97;3.40;;;13.70;99.90;;;;;;4171449;28;20459;-69
2022/05/16 00:14:23;;;;;;;6.20;3.57;;;13.70;99.90;;;;;;4172184;28;20471;-66
2022/05/16 00:16:24;;;;;;;4.47;3.23;;;13.60;99.90;;;;;;4172581;28;20033;-67
2022/05/16 00:18:25;;;;;;;5.43;3.37;;;13.60;99.90;;;;;;4172344;28;20875;-66
2022/05/16 00:20:26;;;;;;;4.43;3.10;;;13.60;99.90;;;;;;4172217;28;20083;-66
2022/05/16 00:22:28;;;;;;;3.53;3.23;;;13.50;99.90;;;;;;4172270;28;20029;-70
2022/05/16 00:24:29;;;;;;;5.97;4.23;;;13.50;99.90;;;;;;4172242;28;20028;-66
2022/05/16 00:26:30;;;;;;;5.27;3.27;;;13.50;99.90;;;;;;4171090;28;20037;-67
2022/05/16 00:28:31;;;;;;;6.40;3.33;;;13.40;99.90;;;;;;4171915;28;20451;-66
2022/05/16 00:30:32;;;;;;;4.17;3.47;;;13.40;99.90;;;;;;4172353;28;20099;-66
2022/05/16 00:32:34;;;;;;;4.63;3.73;;;13.40;99.90;;;;;;4170142;28;20041;-66
2022/05/16 00:34:36;;;;;;;6.03;4.03;;;13.40;99.90;;;;;;4172593;28;20075;-65
2022/05/16 00:36:38;;;;;;;6.07;3.57;;;13.40;99.90;;;;;;4171519;28;20037;-66
2022/05/16 00:38:40;;;;;;;4.43;3.20;;;13.40;99.90;;;;;;4170926;28;20097;-67
2022/05/16 00:40:41;;;;;;;5.63;3.00;;;13.40;99.90;;;;;;4171070;28;20079;-67
2022/05/16 00:42:42;;;;;;;5.83;3.47;;;13.40;99.90;;;;;;4171865;28;20098;-68
2022/05/16 00:44:43;;;;;;;3.57;2.97;;;13.40;99.90;;;;;;4172207;28;20099;-71
2022/05/16 00:46:47;;;;;;;3.50;3.20;;;13.40;99.90;;;;;;4170552;28;20041;-67
2022/05/16 00:48:49;;;;;;;11.70;3.57;;;13.30;99.90;;;;;;4171740;28;20053;-66
2022/05/16 00:50:50;;;;;;;6.37;3.60;;;13.30;99.90;;;;;;4171716;28;20575;-66
2022/05/16 00:52:51;;;;;;;7.27;3.97;;;13.30;99.90;;;;;;4172060;28;20095;-67
2022/05/16 00:55:03;;;;;;;6.27;3.50;;;13.30;99.90;;;;;;4172278;28;20040;-66
2022/05/16 00:57:27;;;;;;;4.93;3.00;;;13.30;99.90;;;;;;4172215;28;20033;-67
2022/05/16 00:59:43;;;;;;;6.13;3.50;;;13.20;99.90;;;;;;4170854;28;20036;-66
2022/05/16 01:06:25;;;;;;;8.13;4.57;;;13.10;99.90;;;;;;4171606;28;20033;-66
2022/05/16 01:08:28;;;;;;;4.60;3.40;;;13.00;99.90;;;;;;4170247;28;20118;-63
2022/05/16 01:10:29;;;;;;;3.70;3.40;;;13.10;99.90;;;;;;4171407;28;20033;-64
2022/05/16 01:12:34;;;;;;;4.57;3.03;;;13.00;99.90;;;;;;4171445;28;20134;-65
2022/05/16 01:14:54;;;;;;;4.10;3.00;;;13.00;99.90;;;;;;4169984;28;20037;-69
2022/05/16 01:16:55;;;;;;;5.17;3.30;;;13.00;99.90;;;;;;4172071;28;20059;-65
2022/05/16 01:18:56;;;;;;;6.17;3.57;;;13.00;99.90;;;;;;4172212;28;20082;-65
2022/05/16 01:21:08;;;;;;;7.17;3.60;;;13.00;99.90;;;;;;4171324;28;20487;-70
2022/05/16 01:23:14;;;;;;;6.40;3.73;;;13.00;99.90;;;;;;4173763;28;20033;-64
2022/05/16 01:25:29;;;;;;;3.70;3.27;;;13.00;99.90;;;;;;4174841;28;20078;-68
2022/05/16 01:27:59;;;;;;;5.60;3.90;;;13.00;99.90;;;;;;4175027;28;20435;-65
2022/05/16 01:30:00;;;;;;;4.13;3.25;;;12.90;99.90;;;;;;4174596;28;20431;-65
2022/05/16 01:32:01;;;;;;;6.37;3.63;;;12.90;99.90;;;;;;4174525;28;20040;-64
2022/05/16 01:34:03;;;;;;;6.13;3.80;;;12.80;99.90;;;;;;4174817;28;20091;-66
2022/05/16 01:36:05;;;;;;;10.27;3.60;;;12.80;99.90;;;;;;4174095;28;20095;-65
2022/05/16 01:38:26;;;;;;;5.40;3.50;;;12.70;99.90;;;;;;4174462;28;20021;-65
2022/05/16 01:40:27;;;;;;;6.33;3.37;;;12.60;99.90;;;;;;4174115;28;20500;-65
2022/05/16 01:42:28;;;;;;;7.30;3.80;;;12.60;99.90;;;;;;4174431;28;20095;-65
2022/05/16 01:44:30;;;;;;;4.83;3.30;;;12.50;99.90;;;;;;4173088;28;20049;-66
2022/05/16 01:46:34;;;;;;;6.10;3.37;;;12.50;99.90;;;;;;4174285;28;20425;-65
2022/05/16 01:48:36;;;;;;;3.97;3.40;;;12.50;99.90;;;;;;4174488;28;21399;-66
2022/05/16 01:50:38;;;;;;;4.47;3.33;;;12.50;99.90;;;;;;4173430;28;20021;-67
2022/05/16 01:52:40;;;;;;;5.40;3.93;;;12.50;99.90;;;;;;4174741;28;20079;-66
2022/05/16 01:54:41;;;;;;;4.80;3.40;;;12.50;99.90;;;;;;4174685;28;20548;-65
2022/05/16 01:56:43;;;;;;;8.07;3.97;;;12.50;99.90;;;;;;4174509;28;20033;-66
2022/05/16 01:58:45;;;;;;;5.77;3.90;;;12.50;99.90;;;;;;4173795;28;20079;-65
2022/05/16 02:00:46;;;;;;;4.40;3.47;;;12.50;99.90;;;;;;4174593;28;20079;-65
2022/05/16 02:02:48;;;;;;;4.27;3.73;;;12.50;99.90;;;;;;4174312;28;20083;-66
2022/05/16 02:04:49;;;;;;;7.33;3.97;;;12.50;99.90;;;;;;4173879;28;20122;-66
2022/05/16 02:06:52;;;;;;;8.13;3.67;;;12.50;99.90;;;;;;4174531;28;20627;-66
2022/05/16 02:08:54;;;;;;;5.20;3.50;;;12.40;99.90;;;;;;4174169;28;20037;-67
2022/05/16 02:10:56;;;;;;;5.07;3.70;;;12.40;99.90;;;;;;4173423;28;20037;-65
2022/05/16 02:12:57;;;;;;;6.87;3.77;;;12.40;99.90;;;;;;4174095;28;20054;-66
2022/05/16 02:14:58;;;;;;;6.60;3.50;;;12.40;99.90;;;;;;4174091;28;20091;-65
2022/05/16 02:16:59;;;;;;;6.73;3.63;;;12.40;99.90;;;;;;4173879;28;20090;-67
2022/05/16 02:19:01;;;;;;;7.80;4.23;;;12.40;99.90;;;;;;4173785;28;20033;-67
2022/05/16 02:25:45;;;;;;;6.53;3.43;;;12.30;99.90;;;;;;4173892;28;20025;-66
2022/05/16 02:27:47;;;;;;;9.40;4.17;;;12.30;99.90;;;;;;4173791;28;20478;-67
2022/05/16 02:29:49;;;;;;;12.70;3.97;;;12.30;99.90;;;;;;4173272;28;20052;-72
2022/05/16 02:31:50;;;;;;;5.53;3.70;;;12.30;99.90;;;;;;4174111;28;20052;-67
2022/05/16 02:33:51;;;;;;;4.77;3.13;;;12.30;99.90;;;;;;4172736;28;20094;-67
2022/05/16 02:35:52;;;;;;;7.90;3.40;;;12.30;99.90;;;;;;4174216;28;20087;-69
2022/05/16 02:37:53;;;;;;;8.13;3.77;;;12.30;99.90;;;;;;4173450;28;20124;-72
2022/05/16 02:39:54;;;;;;;9.77;3.97;;;12.30;99.90;;;;;;4173601;28;20453;-67
2022/05/16 02:41:56;;;;;;;12.40;5.10;;;12.30;99.90;;;;;;4173258;28;20094;-65
2022/05/16 02:43:57;;;;;;;10.53;5.60;;;12.20;99.90;;;;;;4173893;28;20099;-67
2022/05/16 02:45:58;;;;;;;8.40;5.37;;;12.10;99.90;;;;;;4173285;28;20029;-65
2022/05/16 02:48:00;;;;;;;15.67;6.40;;;11.90;99.90;;;;;;4173435;28;20037;-65
2022/05/16 02:50:02;;;;;;;11.77;5.03;;;11.70;99.90;;;;;;4173639;28;20044;-69
2022/05/16 02:52:04;;;;;;;9.73;5.37;;;11.50;99.90;;;;;;4173523;28;20122;-67
2022/05/16 02:54:05;;;;;;;16.47;6.90;;;11.40;99.90;;;;;;4173545;28;20086;-67
2022/05/16 02:56:07;;;;;;;8.43;4.97;;;11.40;99.90;;;;;;4172948;28;20049;-65
2022/05/16 02:58:09;;;;;;;11.03;5.40;;;11.30;99.90;;;;;;4173397;28;20037;-65
2022/05/16 03:00:12;;;;;;;10.07;5.23;;;11.30;99.90;;;;;;4172854;28;20374;-66
2022/05/16 03:02:14;;;;;;;9.77;5.07;;;11.40;99.90;;;;;;4173514;28;20511;-69
2022/05/16 03:04:15;;;;;;;12.93;5.67;;;11.50;99.90;;;;;;4172496;28;20192;-69
2022/05/16 03:06:16;;;;;;;9.63;5.50;;;11.60;99.90;;;;;;4173527;28;20049;-65
2022/05/16 03:08:17;;;;;;;10.20;4.67;;;11.60;99.90;;;;;;4172702;28;20067;-66
2022/05/16 03:10:18;;;;;;;10.17;5.40;;;11.50;99.90;;;;;;4172306;28;20025;-68
2022/05/16 03:12:21;;;;;;;11.60;4.90;;;11.50;99.90;;;;;;4172615;28;20048;-66
2022/05/16 03:14:23;;;;;;;11.30;5.67;;;11.40;99.90;;;;;;4172746;28;20098;-65
2022/05/16 03:16:24;;;;;;;14.63;5.93;;;11.40;99.90;;;;;;4173071;28;20532;-64
2022/05/16 03:18:29;;;;;;;11.73;5.33;;;11.50;99.90;;;;;;4173134;28;20366;-66
2022/05/16 03:20:30;;;;;;;12.63;5.67;;;11.60;99.90;;;;;;4171467;28;20094;-68
2022/05/16 03:22:31;;;;;;;9.73;5.10;;;11.70;99.90;;;;;;4172552;28;20083;-72
2022/05/16 03:24:33;;;;;;;10.23;6.57;;;11.70;99.90;;;;;;4173183;28;20432;-71
2022/05/16 03:26:35;;;;;;;15.37;6.80;;;11.60;99.90;;;;;;4174645;28;20879;-67
2022/05/16 03:28:36;;;;;;;9.90;6.47;;;11.70;99.90;;;;;;4175027;28;20106;-65
2022/05/16 03:30:38;;;;;;;10.67;6.80;;;11.70;99.90;;;;;;4172528;28;20029;-66
2022/05/16 03:32:40;;;;;;;9.77;5.97;;;11.90;99.90;;;;;;4172841;28;20032;-65
2022/05/16 03:34:41;;;;;;;13.00;6.90;;;11.90;99.90;;;;;;4172216;28;20033;-66
2022/05/16 03:36:42;;;;;;;18.67;7.47;;;11.80;99.90;;;;;;4172640;28;20083;-68
2022/05/16 03:41:03;;;;;;;9.93;7.23;;;12.00;99.90;;;;;;4172626;28;20079;-66
2022/05/16 03:43:04;;;;;;;10.70;6.57;;;12.20;99.90;;;;;;4170281;28;20063;-64
2022/05/16 03:45:05;;;;;;;16.50;7.70;;;12.50;99.90;;;;;;4172671;28;20041;-64
2022/05/16 03:47:07;;;;;;;15.20;7.67;;;12.70;99.90;;;;;;4171937;28;20795;-66
2022/05/16 03:49:08;;;;;;;12.47;7.83;;;12.90;99.90;;;;;;4172696;28;20046;-66
2022/05/16 03:51:11;;;;;;;14.37;7.37;;;13.10;99.90;;;;;;4171878;28;20539;-66
2022/05/16 03:53:12;;;;;;;18.77;7.57;;;13.30;99.90;;;;;;4172594;28;20083;-66
2022/05/16 03:55:16;;;;;;;22.57;8.43;;;13.40;99.90;;;;;;4171960;28;20396;-70
2022/05/16 03:57:17;;;;;;;19.77;8.93;;;13.50;99.90;;;;;;4171904;28;20037;-65
2022/05/16 03:59:18;;;;;;;15.03;8.20;;;13.20;99.90;;;;;;4172040;28;20045;-66
2022/05/16 04:01:20;;;;;;;17.17;8.73;;;13.20;99.90;;;;;;4170587;28;20477;-65
2022/05/16 04:03:21;;;;;;;14.60;8.53;;;13.10;99.90;;;;;;4172383;28;20033;-66
2022/05/16 04:05:24;;;;;;;21.53;9.07;;;13.10;99.90;;;;;;4172303;28;20098;-65
2022/05/16 04:07:25;;;;;;;15.10;8.57;;;13.50;99.90;;;;;;4171850;28;20060;-64
2022/05/16 04:09:26;;;;;;;19.83;8.53;;;13.90;99.90;;;;;;4171776;28;20596;-67
2022/05/16 04:11:27;;;;;;;17.63;8.33;;;14.20;99.90;;;;;;4171464;28;20057;-64
2022/05/16 04:13:29;;;;;;;21.20;9.40;;;14.40;99.90;;;;;;4171798;28;20816;-67
2022/05/16 04:15:31;;;;;;;17.63;8.30;;;14.50;99.90;;;;;;4172041;28;20088;-67
2022/05/16 04:17:33;;;;;;;16.27;7.70;;;14.80;99.90;;;;;;4170596;28;20789;-66
2022/05/16 04:19:34;;;;;;;12.23;6.60;;;14.90;99.90;;;;;;4171161;28;20419;-67
2022/05/16 04:21:37;;;;;;;11.80;6.73;;;15.10;99.90;;;;;;4170973;28;20140;-67
2022/05/16 04:23:39;;;;;;;10.13;6.17;;;15.60;99.90;;;;;;4171368;28;20040;-68
2022/05/16 04:25:41;;;;;;;16.30;5.80;;;16.00;99.90;;;;;;4171233;28;20041;-65
2022/05/16 04:27:42;;;;;;;11.10;6.00;;;16.30;99.90;;;;;;4171891;28;20099;-68
2022/05/16 04:29:43;;;;;;;14.20;6.53;;;16.50;99.90;;;;;;4171207;28;20049;-66
2022/05/16 04:31:44;;;;;;;12.93;6.17;;;16.70;99.90;;;;;;4171681;28;20099;-67
2022/05/16 04:33:45;;;;;;;10.43;6.63;;;16.80;99.90;;;;;;4171547;28;20079;-68
2022/05/16 04:35:47;;;;;;;19.73;6.17;;;17.10;99.90;;;;;;4171891;28;20091;-66
2022/05/16 04:37:48;;;;;;;11.50;6.10;;;16.90;99.90;;;;;;4171829;28;20037;-67
2022/05/16 04:39:49;;;;;;;8.73;6.40;;;16.40;99.90;;;;;;4171341;28;20023;-66
2022/05/16 04:44:10;;;;;;;18.38;6.78;;;16.00;99.90;;;;;;4170689;28;20074;-67
2022/05/16 04:46:11;;;;;;;12.33;6.23;;;16.00;99.90;;;;;;4171863;28;20115;-67
2022/05/16 04:48:12;;;;;;;11.03;5.80;;;16.10;99.90;;;;;;4166229;28;20037;-67
2022/05/16 04:50:15;;;;;;;11.02;6.18;;;16.30;99.90;;;;;;4171542;28;20118;-67
2022/05/16 04:52:17;;;;;;;7.85;5.65;;;16.80;99.90;;;;;;4171056;28;20098;-66
2022/05/16 04:54:18;;;;;;;9.57;6.10;;;17.20;99.90;;;;;;4171965;28;20401;-66
2022/05/16 04:56:19;;;;;;;11.02;5.70;;;17.30;99.90;;;;;;4170650;28;20032;-66
2022/05/16 04:58:23;;;;;;;13.18;5.82;;;18.10;99.90;;;;;;4173904;28;20107;-71
2022/05/16 05:00:25;;;;;;;11.23;5.80;;;18.50;99.90;;;;;;4173665;28;20509;-67
2022/05/16 05:02:27;;;;;;;9.23;6.22;;;18.60;99.90;;;;;;4173622;28;20110;-66
2022/05/16 05:04:28;;;;;;;18.02;6.28;;;19.10;99.90;;;;;;4174729;28;20098;-68
2022/05/16 05:06:29;;;;;;;8.68;5.32;;;18.70;99.90;;;;;;4174166;28;20492;-67
2022/05/16 05:08:30;;;;;;;8.75;4.80;;;18.90;99.90;;;;;;4173803;28;20743;-68
2022/05/16 05:15:13;;;;;;;10.87;5.57;;;19.20;99.90;;;;;;4174570;28;20075;-65
2022/05/16 05:17:14;;;;;;;10.27;5.15;;;19.20;99.30;;;;;;4174316;28;20041;-66
2022/05/16 05:19:16;;;;;;;15.40;5.60;;;19.60;99.00;;;;;;4174532;28;20570;-66
2022/05/16 05:21:17;;;;;;;9.23;5.50;;;19.90;98.40;;;;;;4174511;28;20106;-66
2022/05/16 05:23:19;;;;;;;10.82;5.00;;;20.60;97.70;;;;;;4174126;28;20036;-68
2022/05/16 05:25:21;;;;;;;18.27;6.07;;;20.80;96.80;;;;;;4174202;28;20091;-66
2022/05/16 05:27:22;;;;;;;12.75;5.65;;;21.00;96.30;;;;;;4174217;28;20017;-67
2022/05/16 05:29:24;;;;;;;11.93;5.22;;;21.30;95.90;;;;;;4174155;28;20037;-66
2022/05/16 05:31:25;;;;;;;9.85;5.00;;;21.80;95.30;;;;;;4174031;28;20090;-67
2022/05/16 05:33:27;;;;;;;10.05;5.43;;;22.00;94.30;;;;;;4174482;28;20045;-66
2022/05/16 05:35:29;;;;;;;8.32;4.70;;;22.20;93.90;;;;;;4173560;28;20029;-67
2022/05/16 05:37:31;;;;;;;13.45;4.93;;;22.50;93.20;;;;;;4174217;28;20048;-67
2022/05/16 05:39:34;;;;;;;13.65;6.65;;;22.50;92.80;;;;;;4173989;28;20037;-67
2022/05/16 05:41:35;;;;;;;9.90;4.82;;;22.90;92.30;;;;;;4174032;28;20075;-66
2022/05/16 05:43:37;;;;;;;9.50;4.70;;;23.00;91.60;;;;;;4173752;28;20107;-67
2022/05/16 05:45:39;;;;;;;5.72;4.53;;;;;;;;;;4173911;28;20041;-67
2022/05/16 05:47:41;;;;;;;18.00;6.07;;;;;;;;;;4173429;28;20037;-67
2022/05/16 05:49:43;;;;;;;8.18;4.97;;;;;;;;;;4173607;28;20071;-67
2022/05/16 05:51:44;;;;;;;5.43;4.70;;;;;;;;;;4174041;28;20098;-67
2022/05/16 05:53:46;;;;;;;17.55;6.15;;;;;;;;;;4174010;28;20047;-68
2022/05/16 05:55:47;;;;;;;10.75;4.97;;;;;;;;;;4173015;28;20087;-71
2022/05/16 05:57:49;;;;;;;13.50;4.70;;;;;;;;;;4174150;28;20033;-68
2022/05/16 05:59:50;;;;;;;16.10;6.07;;;23.20;91.40;;;;;;4174149;28;21009;-67
2022/05/16 06:01:51;;;;;;;14.27;5.13;;;24.10;84.60;;;;;;4172673;28;20033;-67
2022/05/16 06:03:53;;;;;;;15.30;5.55;;;23.90;85.80;;;;;;4173935;28;20090;-67
2022/05/16 06:05:54;;;;;;;13.88;4.60;;;23.60;85.60;;;;;;4172541;28;20037;-67
2022/05/16 06:07:55;;;;;;;44.58;14.23;;;23.20;86.30;;;;;;4173649;28;20098;-67
2022/05/16 06:09:57;;;;;;;12.00;5.03;;;23.30;86.30;;;;;;4172035;28;20099;-67
2022/05/16 06:11:59;;;;;;;11.60;5.47;;;22.90;85.90;;;;;;4173966;28;20056;-68
2022/05/16 06:14:00;;;;;;;13.18;5.50;;;22.40;86.90;;;;;;4173335;28;20452;-66
2022/05/16 06:16:01;;;;;;;11.23;5.35;;;21.90;87.60;;;;;;4173872;28;20400;-67
2022/05/16 06:18:03;;;;;;;13.27;5.88;;;21.60;88.60;;;;;;4173522;28;20040;-67
2022/05/16 06:20:06;;;;;;;13.32;5.72;;;21.20;89.60;;;;;;4173269;28;20099;-68
2022/05/16 06:22:07;;;;;;;8.00;5.05;;;20.80;90.00;;;;;;4173417;28;20107;-67
2022/05/16 06:26:28;;;;;;;15.60;4.93;;;20.50;90.50;;;;;;4175119;28;20087;-67
2022/05/16 06:28:32;;;;;;;11.45;4.28;;;20.90;90.40;;;;;;4173082;28;20033;-68
2022/05/16 06:30:36;;;;;;;9.07;4.55;;;21.30;89.80;;;;;;4173428;28;20366;-67
2022/05/16 06:32:37;;;;;;;7.35;3.55;;;21.50;88.80;;;;;;4172094;28;20036;-67
2022/05/16 06:34:38;;;;;;;5.82;3.63;;;21.50;88.60;;;;;;4171439;28;20041;-69
2022/05/16 06:36:41;;;;;;;11.73;3.78;;;22.10;87.40;;;;;;4173192;28;20083;-68
2022/05/16 06:38:42;;;;;;;10.85;4.57;;;22.10;86.80;;;;;;4173154;28;20314;-67
2022/05/16 06:40:48;;;;;;;8.65;4.28;;;22.20;86.70;;;;;;4173098;28;20040;-68
2022/05/16 06:42:49;;;;;;;7.90;4.03;;;22.80;86.20;;;;;;4173520;28;20103;-72
2022/05/16 06:44:52;;;;;;;14.02;4.32;;;23.20;85.40;;;;;;4172457;28;20432;-72
2022/05/16 06:46:53;;;;;;;14.27;5.25;;;23.60;85.00;;;;;;4173436;28;20021;-67
2022/05/16 06:48:54;;;;;;;15.80;5.18;;;23.70;84.10;;;;;;4172502;28;20059;-66
2022/05/16 06:50:56;;;;;;;25.30;5.55;;;23.40;84.40;;;;;;4173228;28;20079;-68
2022/05/16 06:52:58;;;;;;;16.73;4.68;;;23.00;85.00;;;;;;4172303;28;20044;-68
2022/05/16 06:55:01;;;;;;;9.25;4.38;;;22.70;85.80;;;;;;4173655;28;20095;-67
2022/05/16 06:57:03;;;;;;;9.65;3.60;;;22.60;86.50;;;;;;4172811;28;20308;-67
2022/05/16 06:59:04;;;;;;;12.32;3.53;;;22.80;86.90;;;;;;4173057;28;20087;-66
2022/05/16 07:01:05;;;;;;;13.40;4.03;;;;;;;;;;4172674;28;20033;-71
2022/05/16 07:03:07;;;;;;;15.95;4.57;;;23.20;86.60;;;;;;4172539;28;20083;-72
2022/05/16 07:05:09;;;;;;;12.10;5.03;;;23.60;85.00;;;;;;4172945;28;20074;-66
2022/05/16 07:07:11;;;;;;;9.65;4.80;;;23.10;85.60;;;;;;4172633;28;20045;-67
2022/05/16 07:09:12;;;;;;;8.93;4.35;;;22.60;86.80;;;;;;4172559;28;20170;-66
2022/05/16 07:11:14;;;;;;;21.65;5.40;;;22.50;87.50;;;;;;4172064;28;20049;-67
2022/05/16 07:13:16;;;;;;;17.30;5.80;;;22.40;88.40;;;;;;4172340;28;20041;-69
2022/05/16 07:15:17;;;;;;;13.23;4.28;;;22.30;89.30;;;;;;4172410;28;20090;-67
2022/05/16 07:17:19;;;;;;;12.93;5.13;;;22.60;89.00;;;;;;4172672;28;20086;-66
2022/05/16 07:19:20;;;;;;;11.38;5.30;;;22.50;88.80;;;;;;4172021;28;20078;-67
2022/05/16 07:21:21;;;;;;;9.32;4.60;;;22.40;89.20;;;;;;4172795;28;20098;-67
2022/05/16 07:23:24;;;;;;;22.38;9.30;;;22.20;89.40;;;;;;4172088;28;20155;-67
2022/05/16 07:25:27;;;;;;;13.48;7.13;;;21.80;90.10;;;;;;4173048;28;20067;-66
2022/05/16 07:29:48;;;;;;;11.25;6.28;;;21.80;90.60;;;;;;4172763;28;20098;-66
2022/05/16 07:31:51;;;;;;;11.38;6.40;;;21.70;90.90;;;;;;4172123;28;20029;-66
2022/05/16 07:33:52;;;;;;;15.02;6.57;;;21.40;91.20;;;;;;4172446;28;20095;-66
2022/05/16 07:35:55;;;;;;;14.40;7.22;;;21.50;91.40;;;;;;4172023;28;20037;-66
2022/05/16 07:37:58;;;;;;;17.40;7.85;;;21.80;91.30;;;;;;4172398;28;20122;-67
2022/05/16 07:39:59;;;;;;;10.77;6.22;;;22.10;91.00;;;;;;4172264;28;20067;-67
2022/05/16 07:42:02;;;;;;;14.15;6.20;;;22.30;90.90;;;;;;4172463;28;20083;-67
2022/05/16 07:44:04;;;;;;;12.80;6.35;;;22.20;91.00;;;;;;4171996;28;20147;-67
2022/05/16 07:46:05;;;;;;;15.55;6.15;;;22.40;91.10;;;;;;4172359;28;20028;-67
2022/05/16 07:48:07;;;;;;;10.55;5.88;;;22.60;91.00;;;;;;4172004;28;20058;-66
2022/05/16 07:50:09;;;;;;;13.20;5.88;;;22.70;90.90;;;;;;4172094;28;20045;-68
2022/05/16 07:52:11;;;;;;;16.50;5.43;;;22.80;90.90;;;;;;4172299;28;20595;-67
2022/05/16 07:54:12;;;;;;;8.07;4.85;;;22.60;91.10;;;;;;4171521;28;20496;-68
2022/05/16 07:56:13;;;;;;;10.82;5.40;;;22.50;91.20;;;;;;4172872;28;20464;-68
2022/05/16 07:58:14;;;;;;;12.95;5.63;;;22.40;91.40;;;;;;4171468;28;20048;-67
2022/05/16 08:00:17;;;;;;;11.57;5.15;;;22.20;91.60;;;;;;4172218;28;20621;-67
2022/05/16 08:02:18;;;;;;;11.85;4.68;;;22.40;91.70;;;;;;4171940;28;20025;-67
2022/05/16 08:04:19;;;;;;;7.25;4.65;;;22.60;91.40;;;;;;4172468;28;20028;-67
2022/05/16 08:06:20;;;;;;;9.07;5.30;;;22.80;91.30;;;;;;4172006;28;20020;-66
2022/05/16 08:10:41;;;;;;;5.85;4.82;;;22.70;91.40;;;;;;4171507;28;21046;-67
2022/05/16 08:12:43;;;;;;;7.10;5.03;;;22.60;91.50;;;;;;4171734;28;20041;-67
2022/05/16 08:14:44;;;;;;;8.75;3.92;;;22.70;91.40;;;;;;4171809;28;20083;-69
2022/05/16 08:16:45;;;;;;;6.47;3.92;;;22.80;91.20;;;;;;4172103;28;20091;-68
2022/05/16 08:18:46;;;;;;;4.88;3.42;;;;;;;;;;4171519;28;20029;-67
2022/05/16 08:20:49;;;;;;;8.00;3.85;;;;;;;;;;4171729;28;20496;-67
2022/05/16 08:22:51;;;;;;;9.73;4.50;;;;;;;;;;4171609;28;20021;-68
2022/05/16 08:24:52;;;;;;;8.27;3.13;;;;;;;;;;4171750;28;20432;-68
2022/05/16 08:26:54;;;;;;;10.18;3.60;;;;;;;;;;4170445;28;20037;-67
2022/05/16 08:28:55;;;;;;;6.63;3.40;;;;;;;;;;4171188;28;20428;-67
2022/05/16 08:30:57;;;;;;;4.68;3.83;;;;;;;;;;4171449;28;20079;-67
2022/05/16 08:33:01;;;;;;;8.63;3.33;;;;;;;;;;4173898;28;20439;-67
2022/05/16 08:35:04;;;;;;;7.50;3.35;;;;;;;;;;4175403;28;20086;-67
2022/05/16 08:41:51;;;;;;;5.45;3.15;;;;;;;;;;4174838;28;20636;-66
2022/05/16 08:44:01;;;;;;;6.80;2.60;;;;;;;;;;4174509;28;20052;-66
2022/05/16 08:46:04;;;;;;;6.13;2.22;;;;;;;;;;4174566;28;20484;-67
2022/05/16 08:48:24;;;;;;;4.28;2.20;;;;;;;;;;4175373;28;20029;-68
2022/05/16 08:50:29;;;;;;;5.15;1.80;;;;;;;;;;4172937;28;20089;-67
2022/05/16 08:52:35;;;;;;;5.82;2.33;;;;;;;;;;4175155;28;20503;-66
2022/05/16 08:54:44;;;;;;;6.15;2.20;;;;;;;;;;4174350;28;20465;-66
2022/05/16 08:56:46;;;;;;;9.23;2.55;;;;;;;;;;4174741;28;20469;-67
2022/05/16 08:58:52;;;;;;;4.05;2.10;;;;;;;;;;4173823;28;20028;-66
2022/05/16 09:00:57;;;;;;;7.18;2.40;;;;;;;;;;4174386;28;20036;-67
2022/05/16 09:02:59;;;;;;;7.70;2.58;;;;;;;;;;4173999;28;20087;-70
2022/05/16 09:05:01;;;;;;;7.70;2.35;;;;;;;;;;4174818;28;20033;-67
2022/05/16 09:07:05;;;;;;;7.82;1.90;;;;;;;;;;4174417;28;20114;-69
2022/05/16 09:09:07;;;;;;;5.43;1.50;;;;;;;;;;4174017;28;20029;-67
2022/05/16 09:11:09;;;;;;;4.53;1.45;;;;;;;;;;4174245;28;20107;-68
2022/05/16 09:13:14;;;;;;;3.90;1.27;;;;;;;;;;4174442;28;20583;-66
2022/05/16 09:15:25;;;;;;;9.20;1.83;;;;;;;;;;4174010;28;20134;-66
2022/05/16 09:17:29;;;;;;;10.48;2.00;;;;;;;;;;4174344;28;20017;-65
2022/05/16 09:19:52;;;;;;;3.80;2.13;;;;;;;;;;4173918;28;20082;-66
2022/05/16 09:21:59;;;;;;;3.83;2.22;;;;;;;;;;4173987;28;20045;-66
2022/05/16 09:24:22;;;;;;;4.15;1.67;;;;;;;;;;4173914;28;20094;-66
2022/05/16 09:26:30;;;;;;;6.10;2.33;;;;;;;;;;4174922;28;20132;-66
2022/05/16 09:28:35;;;;;;;7.50;2.00;;;;;;;;;;4174013;28;20036;-65
2022/05/16 09:30:38;;;;;;;3.50;1.50;;;;;;;;;;4174452;28;20092;-66
2022/05/16 09:32:41;;;;;;;4.13;2.10;;;;;;;;;;4174469;28;20025;-65
2022/05/16 09:34:43;;;;;;;2.70;1.50;;;;;;;;;;4174066;28;20082;-66
2022/05/16 09:36:48;;;;;;;3.38;1.42;;;;;;;;;;4174257;28;20021;-68
2022/05/16 09:38:50;;;;;;;2.72;1.67;;;;;;;;;;4173993;28;20025;-67
2022/05/16 09:41:03;;;;;;;4.50;1.80;;;;;;;;;;4174372;28;20029;-67
2022/05/16 09:43:09;;;;;;;8.30;1.90;;;;;;;;;;4172494;28;20048;-67
2022/05/16 09:45:36;;;;;;;3.25;1.88;;;;;;;;;;4173682;28;20067;-65
2022/05/16 09:47:40;;;;;;;11.20;2.13;;;;;;;;;;4171317;28;20052;-68
2022/05/16 09:49:42;;;;;;;4.78;1.77;;;;;;;;;;4173361;28;20035;-67
2022/05/16 09:51:45;;;;;;;4.32;1.77;;;;;;;;;;4173571;28;20033;-66
2022/05/16 09:53:46;;;;;;;3.30;1.65;;;;;;;;;;4173587;28;20489;-66
2022/05/16 09:55:48;;;;;;;4.75;1.90;;;;;;;;;;4173773;28;20423;-67
2022/05/16 09:57:51;;;;;;;3.90;1.33;;;;;;;;;;4173697;28;20868;-68
2022/05/16 09:59:55;;;;;;;7.40;2.20;;;;;;;;;;4173445;28;20021;-66
2022/05/16 10:02:18;;;;;;;2.40;2.00;;;23.10;90.90;;;;;;4173987;28;20029;-67
2022/05/16 10:04:23;;;;;;;2.17;1.50;;;24.10;75.70;;;;;;4171887;28;20037;-67
2022/05/16 10:06:35;;;;;;;2.85;1.70;;;23.80;76.20;;;;;;4173605;28;20098;-67
2022/05/16 10:08:45;;;;;;;3.30;1.88;;;23.90;76.90;;;;;;4173772;28;20767;-67
2022/05/16 10:10:47;;;;;;;4.30;1.40;;;;;;;;;;4173470;28;20041;-67
2022/05/16 10:12:50;;;;;;;6.68;2.17;;;;;;;;;;4173297;28;20603;-68
2022/05/16 10:14:51;;;;;;;6.85;2.20;;;23.90;77.20;;;;;;4173239;28;20114;-67
2022/05/16 10:16:54;;;;;;;7.90;2.08;;;24.00;77.40;;;;;;4172943;28;20041;-67
2022/05/16 10:19:03;;;;;;;4.45;2.38;;;23.90;77.70;;;;;;4173357;28;20033;-67
2022/05/16 10:21:09;;;;;;;10.00;2.00;;;23.90;77.80;;;;;;4173110;28;20021;-67
2022/05/16 10:23:18;;;;;;;4.70;2.00;;;23.90;77.30;;;;;;4173827;28;20041;-67
2022/05/16 10:25:23;;;;;;;2.67;1.50;;;;;;;;;;4172640;28;20083;-67
2022/05/16 10:27:28;;;;;;;5.72;2.25;;;;;;;;;;4173844;28;20552;-67
2022/05/16 10:29:32;;;;;;;3.95;2.05;;;;;;;;;;4172657;28;20130;-67
2022/05/16 10:33:59;;;;;;;2.22;1.60;;;;;;;;;;4172519;28;20044;-66
2022/05/16 10:36:06;;;;;;;4.13;1.70;;;;;;;;;;4173537;28;20094;-67
2022/05/16 10:38:10;;;;;;;7.97;1.80;;;;;;;;;;4171895;28;20159;-67
2022/05/16 10:40:28;;;;;;;6.65;1.48;;;;;;;;;;4173305;28;20033;-67
2022/05/16 10:42:43;;;;;;;6.10;2.17;;;;;;;;;;4172544;28;20033;-66
2022/05/16 10:45:00;;;;;;;4.57;1.35;;;;;;;;;;4173364;28;20083;-66
2022/05/16 10:47:16;;;;;;;2.42;1.70;;;;;;;;;;4172854;28;20507;-66
2022/05/16 10:49:20;;;;;;;2.53;1.67;;;;;;;;;;4172911;28;20130;-67
2022/05/16 10:51:24;;;;;;;6.95;1.80;;;;;;;;;;4172769;28;20021;-67
2022/05/16 10:53:35;;;;;;;2.97;1.80;;;;;;;;;;4171256;28;20480;-68
2022/05/16 10:55:55;;;;;;;3.13;1.48;;;;;;;;;;4171870;28;20807;-66
2022/05/16 10:57:56;;;;;;;;;;;;;;;;;;4173523;28;20029;-67
2022/05/16 11:00:07;;;;;;;5.60;2.47;;;;;;;;;;4172446;28;19909;-66
2022/05/16 11:02:16;;;;;;;4.82;1.70;;;;;;;;;;4172888;28;20432;-67
2022/05/16 11:04:36;;;;;;;5.20;1.45;;;;;;;;;;4171958;28;20053;-66
2022/05/16 11:06:38;;;;;;;;;;;;;;;;;;4173396;28;20525;-67
2022/05/16 11:08:54;;;;;;;3.47;1.55;;;;;;;;;;4171905;28;19908;-67
2022/05/16 11:11:27;;;;;;;5.13;1.85;;;24.00;77.30;;;;;;4172212;28;20094;-67
2022/05/16 11:13:47;;;;;;;5.10;1.58;;;24.10;77.30;;;;;;4156135;28;20049;-67
2022/05/16 11:15:59;;;;;;;2.15;1.42;;;23.90;77.30;;;;;;4172489;28;20049;-67
2022/05/16 11:18:24;;;;;;;4.82;1.95;;;23.90;77.90;;;;;;4172271;28;20574;-67
2022/05/16 11:20:42;;;;;;;4.93;2.28;;;23.90;77.80;;;;;;4172718;28;20511;-66
2022/05/16 11:23:16;;;;;;;5.65;1.92;;;23.90;77.30;;;;;;4172249;28;20020;-67
2022/05/16 11:25:19;;;;;;;2.17;1.50;;;;;;;;;;4136425;28;20038;-67
2022/05/16 11:27:33;;;;;;;3.50;1.75;;;;;;;;;;4172553;28;20198;-68
2022/05/16 11:29:53;;;;;;;3.78;1.88;;;;;;;;;;4171657;28;20543;-67
2022/05/16 11:32:13;;;;;;;3.67;1.70;;;;;;;;;;4172108;28;20627;-68
2022/05/16 11:34:19;;;;;;;3.75;1.52;;;;;;;;;;4171548;28;20973;-66
2022/05/16 11:36:33;;;;;;;4.13;1.60;;;;;;;;;;4172255;28;20029;-66